Terminal Aerodrome Forecast
Issued by NWS

Home | Current Version | Previous Version | Text Only | Print | Product List | Glossary On
Versions: 1 2 3 4 5 6 7 8 9 10 11 12 13
000
FTUS45 KRIW 300533
TAFCOD
TAF
KCOD 300533Z 3006/3106 23007KT P6SM VCSH BKN080
     FM301000 VRB05KT P6SM SCT080 BKN150
     FM301500 02008KT P6SM SCT060 BKN100
     FM301800 02015G24KT P6SM VCTS SCT050CB BKN070
     FM302100 01012G20KT P6SM VCSH BKN050
     FM310200 36008KT P6SM BKN035
      AMD LTD TO CLD VIS AND WIND=

USA.gov is the U.S. government's official web portal to all federal, state and local government web resources and services.